createdAt,value
2023-01-02T00:01:06.990Z,100946.69
2023-01-02T04:32:01.668Z,100726.84
2023-01-02T04:37:04.836Z,100724.19
2023-01-02T04:42:10.340Z,100724.16
2023-01-02T04:47:16.820Z,100727.63
2023-01-02T04:52:24.344Z,100714.53
2023-01-02T04:57:26.088Z,100725.84
2023-01-02T05:02:28.757Z,100714.50
2023-01-02T05:07:34.056Z,100713.63
2023-01-02T05:12:38.739Z,100716.25
2023-01-02T09:10:16.538Z,100845.94
2023-01-02T09:15:49.057Z,100879.94
2023-01-02T09:20:51.609Z,100892.19
2023-01-02T09:25:56.981Z,100900.84
2023-01-02T09:30:59.025Z,100915.63
2023-01-02T09:36:05.510Z,100933.00
2023-01-02T09:41:17.861Z,100936.38
2023-01-02T09:46:36.173Z,100964.16
2023-01-02T09:51:38.079Z,100969.03
2023-01-02T09:56:43.522Z,101002.81
2023-01-02T10:02:10.851Z,101023.34
2023-01-02T10:07:56.871Z,101041.72
2023-01-02T10:13:20.523Z,101050.03
2023-01-02T10:18:53.692Z,101093.00
2023-01-02T10:24:05.277Z,101100.16
2023-01-02T10:29:22.436Z,101119.88
2023-01-02T10:34:26.292Z,101128.31
2023-01-02T10:39:32.869Z,101129.84
2023-01-02T10:46:58.672Z,101151.31
2023-01-02T10:57:15.845Z,101171.72
2023-01-02T11:03:31.148Z,101167.94
2023-01-02T11:09:27.463Z,101173.06
2023-01-02T11:33:32.528Z,101231.03
2023-01-02T12:33:13.153Z,101303.09
2023-01-02T12:44:17.033Z,101317.28
2023-01-02T12:49:34.480Z,101322.50
2023-01-02T13:06:46.046Z,101333.94
2023-01-02T13:12:17.396Z,101342.72
2023-01-02T13:17:49.495Z,101343.59
2023-01-02T13:23:20.630Z,101366.38
2023-01-02T13:28:24.574Z,101368.91
2023-01-02T13:33:33.642Z,101372.56
2023-01-02T13:38:36.335Z,101384.03
2023-01-02T13:43:39.306Z,101393.91
2023-01-02T13:49:00.113Z,101390.41
2023-01-02T15:27:03.045Z,101478.25
2023-01-02T15:38:43.853Z,101491.94
2023-01-02T15:44:56.511Z,101501.72
2023-01-02T15:50:29.135Z,101499.94
2023-01-02T15:55:54.735Z,101508.47
2023-01-02T16:01:24.816Z,101510.06
2023-01-02T16:06:40.441Z,101516.16
2023-01-02T16:11:52.045Z,101504.03
2023-01-02T16:17:07.645Z,101522.28
2023-01-02T16:22:44.934Z,101518.69
2023-01-02T16:27:58.706Z,101533.47
2023-01-02T16:33:46.459Z,101544.84
2023-01-02T16:39:17.527Z,101549.09
2023-01-02T16:44:34.563Z,101553.44
2023-01-02T16:50:10.614Z,101579.69
2023-01-02T17:08:28.782Z,101597.50
2023-01-02T17:13:36.626Z,101601.44
2023-01-02T17:18:38.433Z,101609.81
2023-01-02T17:23:40.276Z,101613.88
2023-01-02T17:28:41.953Z,101625.72
2023-01-02T17:33:47.130Z,101628.84
